createdAt,value
2023-06-20T00:01:08.559Z,11.57
2023-06-20T00:03:35.550Z,7.22
2023-06-20T00:06:02.498Z,9.80
2023-06-20T00:08:29.481Z,11.77
2023-06-20T00:10:56.481Z,7.10
2023-06-20T00:13:25.050Z,7.53
2023-06-20T00:15:52.101Z,8.00
2023-06-20T00:18:19.050Z,8.15
2023-06-20T00:20:48.816Z,6.28
2023-06-20T00:23:15.888Z,6.55
2023-06-20T00:25:42.836Z,5.95
2023-06-20T00:28:11.931Z,8.77
2023-06-20T00:30:39.317Z,8.55
2023-06-20T00:33:06.305Z,7.60
2023-06-20T00:35:33.281Z,10.60
2023-06-20T00:38:03.175Z,6.95
2023-06-20T00:40:30.446Z,7.10
2023-06-20T00:42:57.634Z,7.55
2023-06-20T00:45:28.024Z,7.38
2023-06-20T00:47:55.763Z,5.38
2023-06-20T00:50:28.328Z,10.98
2023-06-20T00:53:05.309Z,7.35
2023-06-20T00:55:34.325Z,7.65
2023-06-20T00:58:03.440Z,10.93
2023-06-20T01:00:36.464Z,6.90
2023-06-20T01:03:10.132Z,7.78
2023-06-20T01:05:38.146Z,11.68
2023-06-20T01:08:25.420Z,7.60
2023-06-20T01:11:23.082Z,7.50
2023-06-20T01:14:22.930Z,9.77
2023-06-20T01:17:11.087Z,8.98
2023-06-20T01:20:09.783Z,5.88
2023-06-20T01:23:09.924Z,6.63
2023-06-20T01:25:55.840Z,12.70
2023-06-20T01:28:33.454Z,7.07
2023-06-20T01:31:04.783Z,6.78
2023-06-20T01:33:43.053Z,9.27
2023-06-20T01:36:13.089Z,12.02
2023-06-20T01:38:44.082Z,8.20
2023-06-20T01:41:18.150Z,8.35
2023-06-20T01:43:47.957Z,6.75
2023-06-20T01:46:16.879Z,8.00
2023-06-20T01:48:45.649Z,7.82
2023-06-20T01:51:14.893Z,8.90
2023-06-20T01:53:43.996Z,7.30
2023-06-20T01:56:12.301Z,8.68
2023-06-20T01:58:43.988Z,8.60
2023-06-20T02:01:13.505Z,7.60
2023-06-20T02:03:43.109Z,8.02
2023-06-20T02:06:12.656Z,8.25
2023-06-20T02:08:41.720Z,12.18
2023-06-20T02:11:09.882Z,5.95
2023-06-20T02:13:40.067Z,6.47
2023-06-20T02:16:09.688Z,6.57
2023-06-20T02:18:38.327Z,7.80
2023-06-20T02:21:19.958Z,6.55
2023-06-20T02:23:51.545Z,6.40
2023-06-20T02:26:20.636Z,7.15
2023-06-20T02:28:50.754Z,8.07
2023-06-20T02:31:27.518Z,9.55
2023-06-20T02:34:00.167Z,8.20
2023-06-20T02:36:30.405Z,11.45
2023-06-20T02:38:58.363Z,7.78
2023-06-20T02:41:25.982Z,7.88
2023-06-20T02:43:53.114Z,8.23
2023-06-20T02:46:51.094Z,7.90
2023-06-20T02:49:40.722Z,6.60
2023-06-20T02:52:37.709Z,5.95
2023-06-20T02:55:37.231Z,6.95
2023-06-20T02:58:13.505Z,8.25
2023-06-20T03:00:45.920Z,6.60
2023-06-20T03:03:21.418Z,9.02
2023-06-20T03:05:49.783Z,11.07
2023-06-20T03:08:21.017Z,10.32
2023-06-20T03:10:49.331Z,6.15
2023-06-20T03:13:17.165Z,6.50
2023-06-20T03:15:53.088Z,7.15
2023-06-20T03:18:20.843Z,7.78
2023-06-20T03:20:49.632Z,8.27
2023-06-20T03:23:17.605Z,7.38
2023-06-20T03:25:46.543Z,7.25
2023-06-20T03:28:13.823Z,8.10
2023-06-20T03:30:44.475Z,7.43
2023-06-20T03:33:11.923Z,8.20
2023-06-20T03:35:40.197Z,8.73
2023-06-20T03:38:07.311Z,12.45
2023-06-20T03:40:34.767Z,9.20
2023-06-20T03:43:02.865Z,6.80
2023-06-20T03:45:31.655Z,10.60
2023-06-20T03:47:58.700Z,7.72
2023-06-20T03:50:25.947Z,9.52
2023-06-20T03:52:53.107Z,6.85
2023-06-20T03:55:20.585Z,7.93
2023-06-20T03:57:48.935Z,8.77
2023-06-20T04:00:16.348Z,8.68
2023-06-20T04:02:46.361Z,7.25
2023-06-20T04:05:14.973Z,8.63
2023-06-20T04:07:43.230Z,8.48
2023-06-20T04:10:12.946Z,6.93
2023-06-20T04:12:41.195Z,6.75
2023-06-20T04:15:09.376Z,10.40
2023-06-20T04:17:38.585Z,8.60
2023-06-20T04:20:15.883Z,6.13
2023-06-20T04:22:47.195Z,6.25
2023-06-20T04:25:15.717Z,11.65
2023-06-20T04:27:45.498Z,7.60
2023-06-20T04:30:13.169Z,10.63
2023-06-20T04:32:43.342Z,8.95
2023-06-20T04:35:12.436Z,9.45
2023-06-20T04:37:40.146Z,8.40
2023-06-20T04:40:12.372Z,8.30
2023-06-20T04:42:39.793Z,8.88
2023-06-20T04:45:08.908Z,8.90
2023-06-20T04:47:37.423Z,11.77
2023-06-20T04:50:05.748Z,7.82
2023-06-20T04:52:33.108Z,8.75
2023-06-20T04:55:03.093Z,7.43
2023-06-20T04:57:35.118Z,10.38
2023-06-20T05:00:04.142Z,8.35
2023-06-20T05:02:32.074Z,11.25
2023-06-20T05:04:59.404Z,13.38
2023-06-20T05:07:27.614Z,7.70
2023-06-20T05:09:55.081Z,8.95
2023-06-20T05:12:22.476Z,9.60
2023-06-20T05:14:49.774Z,10.55
2023-06-20T05:17:17.289Z,7.70
2023-06-20T05:19:44.813Z,8.55
2023-06-20T05:22:12.213Z,9.32
2023-06-20T05:24:39.968Z,8.27
2023-06-20T05:27:07.532Z,8.95
2023-06-20T05:29:34.919Z,9.25
2023-06-20T05:32:02.635Z,13.30
2023-06-20T05:34:30.229Z,12.40
2023-06-20T05:36:57.445Z,10.50
2023-06-20T05:39:24.906Z,7.88
2023-06-20T05:41:52.287Z,10.02
2023-06-20T05:44:19.553Z,8.50
2023-06-20T05:46:46.944Z,8.68
2023-06-20T05:49:16.205Z,7.53
2023-06-20T05:51:45.825Z,11.18
2023-06-20T05:54:13.213Z,14.02
2023-06-20T05:56:41.302Z,10.82
2023-06-20T05:59:08.553Z,12.25
2023-06-20T06:01:35.774Z,12.43
2023-06-20T06:04:03.242Z,14.88
2023-06-20T06:06:30.741Z,10.80
2023-06-20T06:08:57.907Z,13.38
2023-06-20T06:11:26.414Z,10.90
2023-06-20T06:13:53.577Z,12.65
2023-06-20T06:16:21.022Z,10.98
2023-06-20T06:18:48.539Z,13.85
2023-06-20T06:21:15.677Z,10.38
2023-06-20T06:23:43.048Z,14.90
2023-06-20T06:26:10.608Z,12.93
2023-06-20T06:28:37.871Z,12.75
2023-06-20T06:31:14.763Z,14.80
2023-06-20T06:33:43.412Z,12.43
2023-06-20T06:36:11.632Z,15.75
2023-06-20T06:38:39.285Z,11.82
2023-06-20T06:41:07.807Z,14.30
2023-06-20T06:43:35.404Z,12.90
2023-06-20T06:46:02.908Z,9.88
2023-06-20T06:48:30.531Z,11.80
2023-06-20T06:50:59.322Z,10.05
2023-06-20T06:53:26.890Z,12.65
2023-06-20T06:55:54.388Z,13.32
2023-06-20T06:58:21.806Z,13.25
2023-06-20T07:00:49.705Z,10.43
2023-06-20T07:03:17.133Z,15.75
2023-06-20T07:05:44.571Z,9.27
2023-06-20T07:08:11.818Z,10.55
2023-06-20T07:10:39.029Z,12.27
2023-06-20T07:13:07.879Z,11.57
2023-06-20T07:15:35.284Z,15.38
2023-06-20T07:18:02.962Z,17.25
2023-06-20T07:20:30.445Z,12.07
2023-06-20T07:22:57.728Z,11.25
2023-06-20T07:25:25.460Z,10.90
2023-06-20T07:27:53.004Z,11.65
2023-06-20T07:30:20.539Z,11.73
2023-06-20T07:32:49.846Z,12.50
2023-06-20T07:35:17.418Z,14.65
2023-06-20T07:37:44.809Z,12.13
2023-06-20T07:40:13.220Z,13.90
2023-06-20T07:42:40.520Z,11.77
2023-06-20T07:45:08.785Z,13.75
2023-06-20T07:47:35.993Z,12.55
2023-06-20T07:50:06.940Z,10.55
2023-06-20T07:52:34.485Z,10.55
2023-06-20T07:55:13.670Z,12.18
2023-06-20T07:57:49.669Z,11.88
2023-06-20T08:00:17.675Z,10.77
2023-06-20T08:02:45.198Z,13.23
2023-06-20T08:05:13.179Z,14.30
2023-06-20T08:07:40.272Z,10.90
2023-06-20T08:10:08.972Z,12.70
2023-06-20T08:12:36.214Z,15.25
2023-06-20T08:15:03.885Z,11.20
2023-06-20T08:17:33.640Z,12.80
2023-06-20T08:20:01.152Z,11.88
2023-06-20T08:22:29.195Z,10.48
2023-06-20T08:24:57.290Z,11.95
2023-06-20T08:27:24.582Z,14.80
2023-06-20T08:29:51.911Z,13.13
2023-06-20T08:32:19.151Z,14.00
2023-06-20T08:34:51.485Z,10.52
2023-06-20T08:37:23.274Z,12.57
2023-06-20T08:39:50.818Z,10.55
2023-06-20T08:42:18.501Z,11.25
2023-06-20T08:44:57.599Z,12.23
2023-06-20T08:47:26.754Z,12.82
2023-06-20T08:49:54.207Z,15.98
2023-06-20T08:52:30.397Z,12.95
2023-06-20T08:54:59.120Z,8.57
2023-06-20T08:57:26.424Z,9.13
2023-06-20T08:59:56.262Z,10.05
2023-06-20T09:02:24.568Z,11.18
2023-06-20T09:05:10.133Z,8.73
2023-06-20T09:07:39.771Z,9.73
2023-06-20T09:10:10.096Z,10.75
2023-06-20T09:12:51.452Z,8.85
2023-06-20T09:15:23.337Z,7.10
2023-06-20T09:17:53.251Z,5.97
2023-06-20T09:20:21.715Z,8.77
2023-06-20T09:22:48.984Z,8.05
2023-06-20T09:25:31.751Z,7.60
2023-06-20T09:27:59.500Z,9.27
2023-06-20T09:30:34.587Z,7.68
2023-06-20T09:33:05.674Z,6.45
2023-06-20T09:35:33.444Z,6.22
2023-06-20T09:38:07.147Z,8.02
2023-06-20T09:40:45.461Z,6.72
2023-06-20T09:43:12.926Z,6.13
2023-06-20T09:45:40.508Z,5.82
2023-06-20T09:48:10.700Z,5.78
2023-06-20T09:50:40.018Z,12.25
2023-06-20T09:53:16.751Z,8.25
2023-06-20T09:55:44.719Z,8.25
2023-06-20T09:58:13.575Z,10.13
2023-06-20T10:00:40.939Z,6.55
2023-06-20T10:03:10.751Z,6.93
2023-06-20T10:05:38.476Z,7.57
2023-06-20T10:08:07.541Z,6.03
2023-06-20T10:10:34.947Z,6.45
2023-06-20T10:13:02.941Z,6.30
2023-06-20T10:15:30.650Z,7.80
2023-06-20T10:17:57.878Z,6.88
2023-06-20T10:20:43.215Z,5.47
2023-06-20T10:23:11.519Z,6.22
2023-06-20T10:26:01.979Z,10.07
2023-06-20T10:28:29.721Z,8.15
2023-06-20T10:31:02.245Z,6.13
2023-06-20T10:33:41.048Z,9.65
2023-06-20T10:36:18.204Z,7.13
2023-06-20T10:38:54.853Z,9.18
2023-06-20T10:41:28.000Z,10.45
2023-06-20T10:44:02.854Z,7.40
2023-06-20T10:46:36.329Z,7.85
2023-06-20T10:49:09.606Z,12.07
2023-06-20T10:51:55.226Z,8.15
2023-06-20T10:54:23.303Z,8.82
2023-06-20T10:56:50.908Z,6.97
2023-06-20T10:59:20.454Z,6.25
2023-06-20T11:01:47.789Z,5.85
2023-06-20T11:04:16.720Z,4.78
2023-06-20T11:06:44.563Z,7.35
2023-06-20T11:09:26.996Z,5.95
2023-06-20T11:11:54.080Z,5.55
2023-06-20T11:14:23.340Z,5.18
2023-06-20T11:16:52.582Z,7.28
2023-06-20T11:21:55.413Z,4.93
2023-06-20T11:24:23.264Z,6.40
2023-06-20T11:26:50.555Z,4.60
2023-06-20T11:29:20.647Z,5.22
2023-06-20T11:31:48.948Z,4.18
2023-06-20T11:34:16.194Z,5.78
2023-06-20T11:36:43.517Z,4.85
2023-06-20T11:39:14.718Z,3.78
2023-06-20T11:41:44.543Z,4.97
2023-06-20T11:44:26.374Z,5.55
2023-06-20T11:46:58.659Z,4.97
2023-06-20T11:49:33.953Z,3.70
2023-06-20T11:52:01.768Z,4.68
2023-06-20T11:54:28.954Z,5.28
2023-06-20T11:56:56.738Z,3.75
2023-06-20T11:59:25.232Z,7.65
2023-06-20T12:01:54.005Z,4.97
2023-06-20T12:04:23.476Z,3.03
2023-06-20T12:07:03.688Z,4.43
2023-06-20T12:09:42.059Z,3.22
2023-06-20T12:12:10.454Z,3.97
2023-06-20T12:14:39.192Z,4.78
2023-06-20T12:17:06.788Z,2.35
2023-06-20T12:19:34.329Z,5.07
2023-06-20T12:22:01.727Z,2.65
2023-06-20T12:24:29.060Z,2.42
2023-06-20T12:26:56.386Z,2.60
2023-06-20T12:29:23.597Z,2.60
2023-06-20T12:31:51.148Z,2.88
2023-06-20T12:34:20.475Z,3.30
2023-06-20T12:36:47.813Z,3.97
2023-06-20T12:39:15.052Z,3.80
2023-06-20T12:41:42.208Z,3.10
2023-06-20T12:44:09.445Z,4.28
2023-06-20T12:46:36.988Z,2.42
2023-06-20T12:49:04.373Z,5.95
2023-06-20T12:51:31.629Z,4.70
2023-06-20T12:53:59.037Z,2.67
2023-06-20T12:56:26.201Z,3.03
2023-06-20T12:58:53.478Z,2.55
2023-06-20T13:01:27.625Z,2.83
2023-06-20T13:03:55.004Z,3.38
2023-06-20T13:06:22.794Z,2.28
2023-06-20T13:08:49.957Z,4.22
2023-06-20T13:11:19.508Z,4.20
2023-06-20T13:13:46.785Z,3.25
2023-06-20T13:16:17.126Z,3.40
2023-06-20T13:18:46.510Z,2.65
2023-06-20T13:21:13.689Z,2.20
2023-06-20T13:23:41.213Z,4.95
2023-06-20T13:26:10.110Z,3.03
2023-06-20T13:28:37.513Z,2.10
2023-06-20T13:31:04.869Z,4.03
2023-06-20T13:33:32.294Z,3.45
2023-06-20T13:35:59.492Z,2.67
2023-06-20T13:38:26.641Z,2.10
2023-06-20T13:40:54.239Z,2.83
2023-06-20T13:43:21.387Z,2.70
2023-06-20T13:45:48.578Z,2.50
2023-06-20T13:48:15.729Z,2.50
2023-06-20T13:50:43.760Z,2.40
2023-06-20T13:53:12.348Z,1.92
2023-06-20T13:55:39.588Z,3.92
2023-06-20T13:58:06.858Z,2.53
2023-06-20T14:00:40.092Z,2.67
2023-06-20T14:03:07.770Z,3.67
2023-06-20T14:05:35.106Z,3.80
2023-06-20T14:08:03.136Z,2.20
2023-06-20T14:10:30.481Z,2.83
2023-06-20T14:12:57.580Z,1.83
2023-06-20T14:15:24.960Z,4.18
2023-06-20T14:17:56.194Z,2.95
2023-06-20T14:20:23.498Z,1.85
2023-06-20T14:22:50.949Z,2.25
2023-06-20T14:25:18.347Z,2.55
2023-06-20T14:27:45.450Z,3.42
2023-06-20T14:30:13.093Z,2.45
2023-06-20T14:32:41.483Z,2.30
2023-06-20T14:35:09.255Z,2.58
2023-06-20T14:37:36.701Z,1.70
2023-06-20T14:40:05.009Z,2.03
2023-06-20T14:42:32.700Z,2.28
2023-06-20T14:44:59.988Z,3.38
2023-06-20T14:47:28.371Z,2.38
2023-06-20T14:49:55.877Z,1.95
2023-06-20T14:52:23.127Z,2.33
2023-06-20T14:54:50.314Z,5.82
2023-06-20T14:57:17.429Z,1.63
2023-06-20T14:59:44.536Z,3.05
2023-06-20T15:02:12.261Z,4.90
2023-06-20T15:04:39.420Z,4.38
2023-06-20T15:07:06.711Z,2.30
2023-06-20T15:09:36.810Z,2.65
2023-06-20T15:12:04.700Z,2.83
2023-06-20T15:14:31.938Z,6.13
2023-06-20T15:16:59.201Z,2.33
2023-06-20T15:19:26.568Z,5.13
2023-06-20T15:21:53.893Z,2.92
2023-06-20T15:24:20.964Z,1.63
2023-06-20T15:26:48.305Z,3.63
2023-06-20T15:29:15.563Z,2.80
2023-06-20T15:31:43.234Z,3.47
2023-06-20T15:34:10.468Z,2.15
2023-06-20T15:36:40.395Z,13.07
2023-06-20T15:39:07.496Z,3.08
2023-06-20T15:41:34.940Z,2.05
2023-06-20T15:44:03.204Z,3.45
2023-06-20T15:46:40.705Z,8.30
2023-06-20T15:49:17.945Z,2.92
2023-06-20T15:51:45.333Z,4.68
2023-06-20T15:54:12.576Z,3.90
2023-06-20T15:56:39.867Z,4.93
2023-06-20T15:59:10.013Z,7.72
2023-06-20T16:01:38.190Z,6.65
2023-06-20T16:04:05.533Z,3.50
2023-06-20T16:06:32.817Z,2.78
2023-06-20T16:09:00.387Z,2.78
2023-06-20T16:11:30.448Z,4.07
2023-06-20T16:13:58.993Z,4.40
2023-06-20T16:16:27.004Z,5.18
2023-06-20T16:18:54.290Z,6.18
2023-06-20T16:21:21.723Z,4.55
2023-06-20T16:23:50.124Z,6.38
2023-06-20T16:26:17.185Z,10.07
2023-06-20T16:28:44.125Z,8.77
2023-06-20T16:31:11.397Z,9.40
2023-06-20T16:33:49.434Z,14.07
2023-06-20T16:36:18.603Z,12.63
2023-06-20T16:38:45.885Z,10.15
2023-06-20T16:41:13.115Z,8.43
2023-06-20T16:43:41.338Z,7.25
2023-06-20T16:46:10.408Z,8.45
2023-06-20T16:48:38.499Z,5.97
2023-06-20T16:51:09.729Z,8.93
2023-06-20T16:53:37.925Z,8.98
2023-06-20T16:56:04.992Z,5.97
2023-06-20T16:58:31.997Z,6.03
2023-06-20T17:00:58.973Z,6.03
2023-06-20T17:03:26.248Z,6.95
2023-06-20T17:05:53.232Z,5.85
2023-06-20T17:08:20.192Z,9.52
2023-06-20T17:10:47.161Z,5.85
2023-06-20T17:13:14.206Z,4.82
2023-06-20T17:15:41.123Z,12.55
2023-06-20T17:18:08.170Z,7.20
2023-06-20T17:20:35.499Z,6.93
2023-06-20T17:23:02.515Z,7.63
2023-06-20T17:25:29.498Z,6.95
2023-06-20T17:27:56.523Z,6.57
2023-06-20T17:30:24.067Z,4.68
2023-06-20T17:32:51.477Z,8.98
2023-06-20T17:35:18.910Z,7.38
2023-06-20T17:37:46.183Z,5.82
2023-06-20T17:40:14.778Z,7.53
2023-06-20T17:42:42.212Z,9.90
2023-06-20T17:45:10.027Z,6.70
2023-06-20T17:47:37.201Z,5.50
2023-06-20T17:50:06.588Z,7.90
2023-06-20T17:52:33.871Z,5.25
2023-06-20T17:55:01.029Z,4.63
2023-06-20T17:57:28.446Z,4.35
2023-06-20T17:59:55.627Z,4.03
2023-06-20T18:02:22.829Z,5.63
2023-06-20T18:04:49.930Z,4.22
2023-06-20T18:07:16.967Z,3.45
2023-06-20T18:09:44.886Z,6.07
2023-06-20T18:12:11.988Z,5.18
2023-06-20T18:14:38.904Z,3.83
2023-06-20T18:17:06.190Z,4.40
2023-06-20T18:19:43.251Z,4.45
2023-06-20T18:22:18.682Z,4.78
2023-06-20T18:24:45.782Z,5.03
2023-06-20T18:27:12.889Z,5.85
2023-06-20T18:29:39.939Z,4.65
2023-06-20T18:32:07.588Z,3.78
2023-06-20T18:34:34.783Z,7.18
2023-06-20T18:37:01.936Z,4.32
2023-06-20T18:39:29.286Z,5.45
2023-06-20T18:41:56.480Z,8.05
2023-06-20T18:44:23.434Z,4.10
2023-06-20T18:46:50.496Z,4.18
2023-06-20T18:49:17.576Z,5.32
2023-06-20T18:51:45.731Z,5.60
2023-06-20T18:54:14.336Z,5.15
2023-06-20T18:56:41.392Z,3.97
2023-06-20T18:59:08.498Z,3.58
2023-06-20T19:01:35.864Z,5.90
2023-06-20T19:04:02.951Z,5.10
2023-06-20T19:06:29.985Z,4.07
2023-06-20T19:08:57.076Z,6.25
2023-06-20T19:11:24.237Z,3.60
2023-06-20T19:13:51.223Z,4.68
2023-06-20T19:16:18.259Z,4.18
2023-06-20T19:18:45.328Z,6.10
2023-06-20T19:21:12.351Z,5.00
2023-06-20T19:23:39.500Z,5.38
2023-06-20T19:26:07.207Z,4.63
2023-06-20T19:28:34.159Z,4.45
2023-06-20T19:31:01.279Z,4.60
2023-06-20T19:33:28.376Z,6.72
2023-06-20T19:35:55.464Z,5.47
2023-06-20T19:38:22.638Z,6.15
2023-06-20T19:40:50.902Z,4.50
2023-06-20T19:43:18.156Z,5.60
2023-06-20T19:45:47.267Z,4.63
2023-06-20T19:48:14.670Z,4.50
2023-06-20T19:50:41.668Z,4.60
2023-06-20T19:53:08.747Z,6.28
2023-06-20T19:55:35.918Z,5.07
2023-06-20T19:58:03.926Z,4.22
2023-06-20T20:00:31.822Z,7.07
2023-06-20T20:02:58.990Z,6.85
2023-06-20T20:05:26.113Z,6.15
2023-06-20T20:07:53.541Z,5.13
2023-06-20T20:10:20.553Z,4.18
2023-06-20T20:12:47.690Z,6.22
2023-06-20T20:15:14.814Z,5.53
2023-06-20T20:17:41.984Z,5.88
2023-06-20T20:20:09.535Z,5.75
2023-06-20T20:22:36.921Z,5.70
2023-06-20T20:25:11.151Z,5.97
2023-06-20T20:27:41.675Z,9.45
2023-06-20T20:30:10.196Z,5.60
2023-06-20T20:32:37.522Z,6.68
2023-06-20T20:35:05.001Z,6.63
2023-06-20T20:37:31.970Z,6.78
2023-06-20T20:39:59.082Z,4.85
2023-06-20T20:42:26.147Z,8.15
2023-06-20T20:44:53.117Z,7.90
2023-06-20T20:47:21.820Z,6.70
2023-06-20T20:49:48.784Z,7.53
2023-06-20T20:52:16.249Z,7.40
2023-06-20T20:54:43.326Z,7.70
2023-06-20T20:57:10.325Z,8.50
2023-06-20T20:59:37.267Z,6.57
2023-06-20T21:02:07.070Z,7.68
2023-06-20T21:04:36.098Z,10.00
2023-06-20T21:07:03.093Z,7.97
2023-06-20T21:09:30.046Z,8.10
2023-06-20T21:11:57.133Z,7.97
2023-06-20T21:14:24.068Z,9.05
2023-06-20T21:16:51.366Z,8.68
2023-06-20T21:19:18.575Z,20.30
2023-06-20T21:21:46.474Z,7.32
2023-06-20T21:24:14.071Z,8.20
2023-06-20T21:26:41.267Z,6.10
2023-06-20T21:29:08.550Z,12.07
2023-06-20T21:31:35.826Z,7.38
2023-06-20T21:34:03.142Z,8.90
2023-06-20T21:36:30.436Z,12.05
2023-06-20T21:38:58.030Z,7.25
2023-06-20T21:41:25.301Z,6.18
2023-06-20T21:43:52.721Z,7.57
2023-06-20T21:46:21.620Z,5.90
2023-06-20T21:48:48.964Z,10.15
2023-06-20T21:51:16.502Z,7.75
2023-06-20T21:53:43.900Z,9.20
2023-06-20T21:56:11.923Z,8.57
2023-06-20T21:58:39.063Z,8.25
2023-06-20T22:01:06.363Z,8.65
2023-06-20T22:03:33.945Z,9.70
2023-06-20T22:06:01.393Z,10.18
2023-06-20T22:08:29.412Z,10.48
2023-06-20T22:11:00.102Z,12.40
2023-06-20T22:13:30.567Z,14.95
2023-06-20T22:15:58.050Z,9.98
2023-06-20T22:18:25.490Z,10.57
2023-06-20T22:20:56.335Z,11.18
2023-06-20T22:23:25.091Z,11.13
2023-06-20T22:25:56.892Z,9.20
2023-06-20T22:28:24.571Z,9.88
2023-06-20T22:30:52.411Z,13.48
2023-06-20T22:33:19.854Z,11.20
2023-06-20T22:35:47.291Z,14.27
2023-06-20T22:38:17.579Z,14.27
2023-06-20T22:40:45.831Z,10.85
2023-06-20T22:43:14.539Z,14.20
2023-06-20T22:45:42.891Z,13.10
2023-06-20T22:48:10.805Z,12.52
2023-06-20T22:50:39.231Z,14.60
2023-06-20T22:53:06.749Z,13.60
2023-06-20T22:55:38.351Z,12.77
2023-06-20T22:58:06.871Z,13.00
2023-06-20T23:00:34.356Z,15.10
2023-06-20T23:03:01.987Z,15.98
2023-06-20T23:05:29.853Z,13.93
2023-06-20T23:07:58.395Z,17.73
2023-06-20T23:10:26.495Z,18.15
2023-06-20T23:12:54.188Z,13.65
2023-06-20T23:15:21.378Z,16.38
2023-06-20T23:17:48.913Z,17.70
2023-06-20T23:20:16.192Z,15.57
2023-06-20T23:22:43.824Z,14.95
2023-06-20T23:25:15.297Z,14.82
2023-06-20T23:27:42.830Z,15.02
2023-06-20T23:30:11.252Z,14.52
2023-06-20T23:32:39.935Z,13.18
2023-06-20T23:35:08.937Z,16.20
2023-06-20T23:37:40.452Z,16.80
2023-06-20T23:40:13.918Z,14.30
2023-06-20T23:42:42.094Z,17.13
2023-06-20T23:45:10.695Z,20.58
2023-06-20T23:47:38.214Z,18.15
2023-06-20T23:50:06.615Z,18.85
2023-06-20T23:52:34.149Z,16.40
2023-06-20T23:55:01.851Z,15.43
2023-06-20T23:57:33.445Z,17.88
